Time,TemperatureF,DewpointF,PressureIn,WindDirection,WindDirectionDegrees,WindSpeedMPH,WindSpeedGustMPH,Humidity,HourlyPrecipIn,Conditions,Clouds,dailyrainin,SoftwareType,DateUTC
2013-02-24 00:00:00,11.8,9.5,29.03,SE,135,1.1,0.0,90,0.00,,FEW,0.00,WeatherDisplay:10.37,2013-02-24 06:00:00,
2013-02-24 00:05:00,11.7,9.3,29.03,ESE,112,0.0,0.0,90,0.00,,FEW,0.00,WeatherDisplay:10.37,2013-02-24 06:05:00,
2013-02-24 00:10:00,11.7,9.3,29.03,SE,135,0.0,0.0,90,0.00,,FEW,0.00,WeatherDisplay:10.37,2013-02-24 06:10:00,
2013-02-24 00:15:00,11.5,9.1,29.06,SSW,202,2.3,2.3,90,0.00,,FEW,0.00,WeatherDisplay:10.37,2013-02-24 06:15:00,
2013-02-24 00:20:00,11.1,8.8,29.06,SE,135,2.3,2.3,90,0.00,,FEW,0.00,WeatherDisplay:10.37,2013-02-24 06:20:00,
2013-02-24 00:25:00,10.6,8.2,29.06,SSE,158,1.1,0.0,90,0.00,,FEW,0.00,WeatherDisplay:10.37,2013-02-24 06:25:00,
2013-02-24 00:30:00,10.2,7.9,29.03,ESE,112,0.0,0.0,90,0.00,,FEW,0.00,WeatherDisplay:10.37,2013-02-24 06:30:00,
2013-02-24 00:35:00,10.0,7.7,29.03,SSE,158,1.4,0.0,90,0.00,,FEW,0.00,WeatherDisplay:10.37,2013-02-24 06:35:00,
2013-02-24 00:40:00,9.7,7.3,29.03,SSW,202,2.3,2.3,90,0.00,,FEW,0.00,WeatherDisplay:10.37,2013-02-24 06:40:00,
2013-02-24 00:45:00,9.7,7.3,29.03,SSW,202,2.3,2.3,90,0.00,,FEW,0.00,WeatherDisplay:10.37,2013-02-24 06:45:00,
2013-02-24 00:50:00,9.5,7.2,29.03,SSE,158,2.2,2.2,90,0.00,,FEW,0.00,WeatherDisplay:10.37,2013-02-24 06:50:00,
2013-02-24 00:55:00,9.1,6.8,29.03,SSE,158,1.1,1.1,90,0.00,,FEW,0.00,WeatherDisplay:10.37,2013-02-24 06:55:00,
2013-02-24 01:00:00,8.8,6.4,29.03,SSW,202,2.4,2.4,90,0.00,,FEW,0.00,WeatherDisplay:10.37,2013-02-24 07:00:00,
2013-02-24 01:05:00,9.1,6.8,29.03,SSW,202,4.6,4.6,90,0.00,,FEW,0.00,WeatherDisplay:10.37,2013-02-24 07:05:00,
2013-02-24 01:10:00,8.8,6.4,29.03,SSW,202,3.5,3.5,90,0.00,,FEW,0.00,WeatherDisplay:10.37,2013-02-24 07:10:00,
2013-02-24 01:15:00,8.4,6.1,29.00,SSW,202,2.6,2.6,90,0.00,,FEW,0.00,WeatherDisplay:10.37,2013-02-24 07:15:00,
2013-02-24 01:20:00,7.9,5.6,29.00,South,180,2.4,2.4,90,0.00,,FEW,0.00,WeatherDisplay:10.37,2013-02-24 07:20:00,
2013-02-24 01:25:00,7.9,5.6,29.00,South,180,2.3,2.3,90,0.00,,FEW,0.00,WeatherDisplay:10.37,2013-02-24 07:25:00,
2013-02-24 01:30:00,7.9,5.6,29.03,SSW,202,3.5,3.5,90,0.00,,FEW,0.00,WeatherDisplay:10.37,2013-02-24 07:30:00,
2013-02-24 01:35:00,8.1,5.7,29.03,SSW,202,2.3,2.3,90,0.00,,FEW,0.00,WeatherDisplay:10.37,2013-02-24 07:35:00,
2013-02-24 01:40:00,8.1,5.7,29.03,SSW,202,1.1,1.1,90,0.00,,FEW,0.00,WeatherDisplay:10.37,2013-02-24 07:40:00,
2013-02-24 01:45:00,7.9,5.6,29.03,SSW,202,1.1,0.0,90,0.00,,FEW,0.00,WeatherDisplay:10.37,2013-02-24 07:45:00,
2013-02-24 01:50:00,7.7,5.4,29.03,South,180,1.4,1.4,90,0.00,,FEW,0.00,WeatherDisplay:10.37,2013-02-24 07:50:00,
2013-02-24 01:56:00,8.1,5.7,29.03,SSW,202,3.5,3.5,90,0.00,,FEW,0.00,WeatherDisplay:10.37,2013-02-24 07:56:00,
2013-02-24 02:01:00,8.4,6.1,29.03,SSW,202,3.5,3.5,90,0.00,,FEW,0.00,WeatherDisplay:10.37,2013-02-24 08:01:00,
2013-02-24 02:06:00,8.4,6.1,29.03,SSW,202,2.4,2.4,90,0.00,,FEW,0.00,WeatherDisplay:10.37,2013-02-24 08:06:00,
2013-02-24 02:11:00,8.4,6.1,29.03,SSW,202,3.5,3.5,90,0.00,,FEW,0.00,WeatherDisplay:10.37,2013-02-24 08:11:00,
2013-02-24 02:16:00,8.1,5.7,29.03,SSW,202,2.3,2.4,90,0.00,,FEW,0.00,WeatherDisplay:10.37,2013-02-24 08:16:00,
2013-02-24 02:21:00,7.5,5.2,29.03,SSE,158,0.0,0.0,90,0.00,,FEW,0.00,WeatherDisplay:10.37,2013-02-24 08:21:00,
2013-02-24 02:26:00,7.2,4.8,29.03,ESE,112,0.0,0.0,90,0.00,,FEW,0.00,WeatherDisplay:10.37,2013-02-24 08:26:00,
2013-02-24 02:31:00,6.8,4.5,29.06,ESE,112,0.0,0.0,90,0.00,,FEW,0.00,WeatherDisplay:10.37,2013-02-24 08:31:00,
2013-02-24 02:36:00,6.6,4.3,29.06,ESE,112,0.0,0.0,90,0.00,,FEW,0.00,WeatherDisplay:10.37,2013-02-24 08:36:00,
2013-02-24 02:41:00,6.3,4.0,29.06,ESE,112,0.0,0.0,90,0.00,,FEW,0.00,WeatherDisplay:10.37,2013-02-24 08:41:00,
2013-02-24 02:46:00,6.1,3.8,29.06,ESE,112,0.0,0.0,90,0.00,,FEW,0.00,WeatherDisplay:10.37,2013-02-24 08:46:00,
2013-02-24 02:51:00,6.1,3.8,29.06,East,90,0.0,0.0,90,0.00,,FEW,0.00,WeatherDisplay:10.37,2013-02-24 08:51:00,
2013-02-24 02:56:00,6.3,4.0,29.06,SSW,202,1.4,1.4,90,0.00,,FEW,0.00,WeatherDisplay:10.37,2013-02-24 08:56:00,
2013-02-24 03:01:00,6.4,4.1,29.06,SSW,202,1.4,1.4,90,0.00,,FEW,0.00,WeatherDisplay:10.37,2013-02-24 09:01:00,
2013-02-24 03:06:00,6.4,4.1,29.06,East,90,0.0,0.0,90,0.00,,FEW,0.00,WeatherDisplay:10.37,2013-02-24 09:06:00,
2013-02-24 03:11:00,6.1,3.8,29.06,East,90,0.0,0.0,90,0.00,,FEW,0.00,WeatherDisplay:10.37,2013-02-24 09:11:00,
2013-02-24 03:16:00,6.1,3.8,29.03,ESE,112,0.0,0.0,90,0.00,,FEW,0.00,WeatherDisplay:10.37,2013-02-24 09:16:00,
2013-02-24 03:21:00,6.1,3.8,29.03,East,90,0.0,0.0,90,0.00,,FEW,0.00,WeatherDisplay:10.37,2013-02-24 09:21:00,
2013-02-24 03:26:00,6.1,3.8,29.03,East,90,0.0,0.0,90,0.00,,FEW,0.00,WeatherDisplay:10.37,2013-02-24 09:26:00,
2013-02-24 03:31:00,5.9,3.6,29.03,East,90,0.0,0.0,90,0.00,,FEW,0.00,WeatherDisplay:10.37,2013-02-24 09:31:00,
2013-02-24 03:36:00,5.9,3.6,29.03,East,90,0.0,0.0,90,0.00,,FEW,0.00,WeatherDisplay:10.37,2013-02-24 09:36:00,
2013-02-24 03:41:00,6.1,3.8,29.03,SSE,158,1.1,1.1,90,0.00,,FEW,0.00,WeatherDisplay:10.37,2013-02-24 09:41:00,
2013-02-24 03:46:00,6.4,4.1,29.06,SSW,202,2.3,2.3,90,0.00,,FEW,0.00,WeatherDisplay:10.37,2013-02-24 09:46:00,
2013-02-24 03:51:00,6.4,4.1,29.06,SSW,202,2.3,2.3,90,0.00,,FEW,0.00,WeatherDisplay:10.37,2013-02-24 09:51:00,
2013-02-24 03:56:00,6.3,4.0,29.06,South,180,2.3,2.3,90,0.00,,FEW,0.00,WeatherDisplay:10.37,2013-02-24 09:56:00,
2013-02-24 04:01:00,5.9,3.6,29.06,South,180,1.4,1.4,90,0.00,,FEW,0.00,WeatherDisplay:10.37,2013-02-24 10:01:00,
2013-02-24 04:06:00,5.5,3.2,29.06,SE,135,0.0,0.0,90,0.00,,FEW,0.00,WeatherDisplay:10.37,2013-02-24 10:06:00,
2013-02-24 04:11:00,5.5,3.2,29.06,South,180,1.6,1.6,90,0.00,,FEW,0.00,WeatherDisplay:10.37,2013-02-24 10:11:00,
2013-02-24 04:16:00,5.7,3.4,29.06,SSE,158,2.3,2.3,90,0.00,,FEW,0.00,WeatherDisplay:10.37,2013-02-24 10:16:00,
2013-02-24 04:21:00,5.7,3.4,29.06,SSE,158,1.6,1.6,90,0.00,,FEW,0.00,WeatherDisplay:10.37,2013-02-24 10:21:00,
2013-02-24 04:26:00,5.9,3.6,29.06,South,180,2.3,2.3,90,0.00,,FEW,0.00,WeatherDisplay:10.37,2013-02-24 10:26:00,
2013-02-24 04:31:00,5.9,3.6,29.06,South,180,2.3,2.3,90,0.00,,FEW,0.00,WeatherDisplay:10.37,2013-02-24 10:31:00,
2013-02-24 04:36:00,5.9,3.6,29.06,SSE,158,0.0,0.0,90,0.00,,FEW,0.00,WeatherDisplay:10.37,2013-02-24 10:36:00,
2013-02-24 04:41:00,5.5,3.2,29.06,South,180,2.3,2.3,90,0.00,,FEW,0.00,WeatherDisplay:10.37,2013-02-24 10:41:00,
2013-02-24 04:46:00,5.4,3.1,29.09,South,180,2.3,2.6,90,0.00,,FEW,0.00,WeatherDisplay:10.37,2013-02-24 10:46:00,
2013-02-24 04:51:00,5.2,2.9,29.09,SSW,202,2.9,2.9,90,0.00,,FEW,0.00,WeatherDisplay:10.37,2013-02-24 10:51:00,
2013-02-24 04:56:00,5.0,2.7,29.09,SSW,202,2.4,2.4,90,0.00,,FEW,0.00,WeatherDisplay:10.37,2013-02-24 10:56:00,
2013-02-24 05:01:00,4.5,2.2,29.06,SSE,158,1.1,0.0,90,0.00,,FEW,0.00,WeatherDisplay:10.37,2013-02-24 11:01:00,
2013-02-24 05:06:00,4.3,2.0,29.06,South,180,2.0,2.0,90,0.00,,FEW,0.00,WeatherDisplay:10.37,2013-02-24 11:06:00,
2013-02-24 05:11:00,4.3,2.0,29.06,SSE,158,1.6,1.6,90,0.00,,FEW,0.00,WeatherDisplay:10.37,2013-02-24 11:11:00,
2013-02-24 05:16:00,4.5,2.2,29.09,South,180,2.9,2.9,90,0.00,,FEW,0.00,WeatherDisplay:10.37,2013-02-24 11:16:00,
2013-02-24 05:21:00,4.8,2.5,29.09,SSE,158,3.1,3.1,90,0.00,,FEW,0.00,WeatherDisplay:10.37,2013-02-24 11:21:00,
2013-02-24 05:26:00,4.8,2.5,29.09,SSW,202,2.4,2.4,90,0.00,,FEW,0.00,WeatherDisplay:10.37,2013-02-24 11:26:00,
2013-02-24 05:31:00,4.1,1.8,29.09,SSW,202,2.4,2.4,90,0.00,,FEW,0.00,WeatherDisplay:10.37,2013-02-24 11:31:00,
2013-02-24 05:36:00,4.1,1.8,29.09,South,180,2.3,2.3,90,0.00,,FEW,0.00,WeatherDisplay:10.37,2013-02-24 11:36:00,
2013-02-24 05:41:00,4.3,2.0,29.09,SSW,202,3.5,3.5,90,0.00,,FEW,0.00,WeatherDisplay:10.37,2013-02-24 11:41:00,
2013-02-24 05:46:00,4.3,2.0,29.09,SSW,202,2.9,2.9,90,0.00,,FEW,0.00,WeatherDisplay:10.37,2013-02-24 11:46:00,
2013-02-24 05:51:00,3.7,1.5,29.09,South,180,3.5,3.5,90,0.00,,FEW,0.00,WeatherDisplay:10.37,2013-02-24 11:51:00,
2013-02-24 05:56:00,3.6,1.3,29.09,SSW,202,2.3,2.3,90,0.00,,FEW,0.00,WeatherDisplay:10.37,2013-02-24 11:56:00,
2013-02-24 06:01:00,3.6,1.3,29.09,South,180,2.6,2.6,90,0.00,,FEW,0.00,WeatherDisplay:10.37,2013-02-24 12:01:00,
2013-02-24 06:06:00,3.2,0.9,29.09,South,180,2.4,2.4,90,0.00,,FEW,0.00,WeatherDisplay:10.37,2013-02-24 12:06:00,
2013-02-24 06:11:00,3.2,0.9,29.09,South,180,2.3,2.3,90,0.00,,FEW,0.00,WeatherDisplay:10.37,2013-02-24 12:11:00,
2013-02-24 06:16:00,3.6,1.3,29.09,SSE,158,1.6,1.6,90,0.00,,FEW,0.00,WeatherDisplay:10.37,2013-02-24 12:16:00,
2013-02-24 06:21:00,3.4,1.1,29.09,South,180,2.3,2.3,90,0.00,,FEW,0.00,WeatherDisplay:10.37,2013-02-24 12:21:00,
2013-02-24 06:26:00,3.6,1.3,29.09,South,180,1.1,0.0,90,0.00,,FEW,0.00,WeatherDisplay:10.37,2013-02-24 12:26:00,
2013-02-24 06:31:00,3.4,1.1,29.09,SSW,202,1.6,1.6,90,0.00,,FEW,0.00,WeatherDisplay:10.37,2013-02-24 12:31:00,
2013-02-24 06:36:00,3.7,1.5,29.09,SSW,202,3.1,3.1,90,0.00,,FEW,0.00,WeatherDisplay:10.37,2013-02-24 12:36:00,
2013-02-24 06:41:00,3.4,1.1,29.09,South,180,3.5,3.5,90,0.00,,FEW,0.00,WeatherDisplay:10.37,2013-02-24 12:41:00,
2013-02-24 06:46:00,3.2,0.9,29.06,SSW,202,3.5,3.5,90,0.00,,FEW,0.00,WeatherDisplay:10.37,2013-02-24 12:46:00,
2013-02-24 06:51:00,3.0,0.8,29.06,SSW,202,2.4,2.4,90,0.00,,FEW,0.00,WeatherDisplay:10.37,2013-02-24 12:51:00,
2013-02-24 06:56:00,3.2,0.9,29.06,SSW,202,3.5,3.5,90,0.00,,FEW,0.00,WeatherDisplay:10.37,2013-02-24 12:56:00,
2013-02-24 07:02:00,3.2,0.9,29.09,SSW,202,2.6,2.6,90,0.00,,FEW,0.00,WeatherDisplay:10.37,2013-02-24 13:02:00,
2013-02-24 07:07:00,2.8,0.6,29.09,SSW,202,3.5,3.5,90,0.00,,FEW,0.00,WeatherDisplay:10.37,2013-02-24 13:07:00,
2013-02-24 07:12:00,3.0,0.8,29.09,South,180,2.3,2.3,90,0.00,,FEW,0.00,WeatherDisplay:10.37,2013-02-24 13:12:00,
2013-02-24 07:17:00,3.7,1.5,29.09,SSW,202,2.3,2.3,90,0.00,,FEW,0.00,WeatherDisplay:10.37,2013-02-24 13:17:00,
2013-02-24 07:22:00,4.1,1.8,29.09,SSW,202,2.6,2.6,90,0.00,,FEW,0.00,WeatherDisplay:10.37,2013-02-24 13:22:00,
2013-02-24 07:27:00,5.0,2.7,29.09,South,180,3.6,3.6,90,0.00,,FEW,0.00,WeatherDisplay:10.37,2013-02-24 13:27:00,
2013-02-24 07:32:00,5.2,2.9,29.09,SSW,202,2.4,2.4,90,0.00,,FEW,0.00,WeatherDisplay:10.37,2013-02-24 13:32:00,
2013-02-24 07:37:00,5.5,3.2,29.09,South,180,2.3,2.3,90,0.00,,FEW,0.00,WeatherDisplay:10.37,2013-02-24 13:37:00,
2013-02-24 07:42:00,5.9,3.6,29.09,WSW,248,2.4,2.4,90,0.00,,FEW,0.00,WeatherDisplay:10.37,2013-02-24 13:42:00,
2013-02-24 07:47:00,6.1,3.8,29.12,WSW,248,2.4,2.4,90,0.00,,FEW,0.00,WeatherDisplay:10.37,2013-02-24 13:47:00,
2013-02-24 07:52:00,6.4,4.1,29.12,SSW,202,1.1,0.0,90,0.00,,FEW,0.00,WeatherDisplay:10.37,2013-02-24 13:52:00,
2013-02-24 07:57:00,6.6,4.3,29.12,SSW,202,2.4,2.4,90,0.00,,FEW,0.00,WeatherDisplay:10.37,2013-02-24 13:57:00,
2013-02-24 08:02:00,6.8,4.5,29.12,South,180,2.6,2.6,90,0.00,,FEW,0.00,WeatherDisplay:10.37,2013-02-24 14:02:00,
2013-02-24 08:07:00,7.5,5.2,29.12,ESE,112,1.1,0.0,90,0.00,,FEW,0.00,WeatherDisplay:10.37,2013-02-24 14:07:00,
2013-02-24 08:12:00,8.6,6.3,29.12,East,90,0.0,0.0,90,0.00,,FEW,0.00,WeatherDisplay:10.37,2013-02-24 14:12:00,
2013-02-24 08:17:00,9.5,7.2,29.12,East,90,0.0,0.0,90,0.00,,FEW,0.00,WeatherDisplay:10.37,2013-02-24 14:17:00,
2013-02-24 08:22:00,10.6,8.2,29.12,East,90,0.0,0.0,90,0.00,,FEW,0.00,WeatherDisplay:10.37,2013-02-24 14:22:00,
2013-02-24 08:27:00,11.7,9.3,29.12,East,90,0.0,0.0,90,0.00,,FEW,0.00,WeatherDisplay:10.37,2013-02-24 14:27:00,
2013-02-24 08:32:00,12.6,10.2,29.12,SSE,158,1.6,0.0,90,0.00,,FEW,0.00,WeatherDisplay:10.37,2013-02-24 14:32:00,
2013-02-24 08:37:00,13.6,11.3,29.12,ESE,112,0.0,0.0,90,0.00,,FEW,0.00,WeatherDisplay:10.37,2013-02-24 14:37:00,
2013-02-24 08:42:00,15.1,11.1,29.12,East,90,0.0,0.0,84,0.00,,FEW,0.00,WeatherDisplay:10.37,2013-02-24 14:42:00,
2013-02-24 08:47:00,16.2,12.2,29.12,ENE,68,0.0,0.0,84,0.00,,FEW,0.00,WeatherDisplay:10.37,2013-02-24 14:47:00,
2013-02-24 08:52:00,17.1,13.1,29.12,NNE,22,0.9,0.0,84,0.00,,FEW,0.00,WeatherDisplay:10.37,2013-02-24 14:52:00,
2013-02-24 08:57:00,17.6,13.3,29.12,NNE,22,0.0,0.0,83,0.00,,FEW,0.00,WeatherDisplay:10.37,2013-02-24 14:57:00,
2013-02-24 09:02:00,18.7,14.6,29.12,NNE,22,0.0,0.0,84,0.00,,FEW,0.00,WeatherDisplay:10.37,2013-02-24 15:02:00,
2013-02-24 09:07:00,20.3,16.5,29.12,ENE,68,2.3,0.0,85,0.00,,FEW,0.00,WeatherDisplay:10.37,2013-02-24 15:07:00,
2013-02-24 09:12:00,21.2,17.1,29.12,ENE,68,0.0,0.0,84,0.00,,FEW,0.00,WeatherDisplay:10.37,2013-02-24 15:12:00,
2013-02-24 09:17:00,22.6,18.3,29.12,NE,45,0.0,0.0,83,0.00,,FEW,0.00,WeatherDisplay:10.37,2013-02-24 15:17:00,
2013-02-24 09:22:00,23.4,18.7,29.12,East,90,0.0,0.0,82,0.00,,FEW,0.00,WeatherDisplay:10.37,2013-02-24 15:22:00,
2013-02-24 09:27:00,25.2,20.7,29.12,East,90,0.0,0.0,83,0.00,,FEW,0.00,WeatherDisplay:10.37,2013-02-24 15:27:00,
2013-02-24 09:32:00,27.1,22.1,29.12,East,90,0.0,0.0,81,0.00,,FEW,0.00,WeatherDisplay:10.37,2013-02-24 15:32:00,
2013-02-24 09:37:00,27.0,20.4,29.12,WNW,292,1.1,0.0,76,0.00,,FEW,0.00,WeatherDisplay:10.37,2013-02-24 15:37:00,
2013-02-24 09:42:00,26.4,19.9,29.12,WSW,248,1.1,0.0,76,0.00,,FEW,0.00,WeatherDisplay:10.37,2013-02-24 15:42:00,
2013-02-24 09:47:00,26.8,19.6,29.12,WNW,292,1.1,0.0,74,0.00,,FEW,0.00,WeatherDisplay:10.37,2013-02-24 15:47:00,
2013-02-24 09:52:00,27.5,20.0,29.12,WNW,292,0.0,0.0,73,0.00,,FEW,0.00,WeatherDisplay:10.37,2013-02-24 15:52:00,
2013-02-24 09:57:00,27.7,19.8,29.12,WNW,292,1.1,1.1,72,0.00,,FEW,0.00,WeatherDisplay:10.37,2013-02-24 15:57:00,
2013-02-24 10:02:00,28.6,20.0,29.15,West,270,1.1,0.0,70,0.00,,FEW,0.00,WeatherDisplay:10.37,2013-02-24 16:02:00,
2013-02-24 10:07:00,30.0,19.3,29.15,NW,315,0.0,0.0,64,0.00,,FEW,0.00,WeatherDisplay:10.37,2013-02-24 16:07:00,
2013-02-24 10:12:00,30.6,20.5,29.15,SSE,158,1.1,1.1,66,0.00,,FEW,0.00,WeatherDisplay:10.37,2013-02-24 16:12:00,
2013-02-24 10:17:00,32.2,20.2,29.15,South,180,0.0,0.0,61,0.00,,FEW,0.00,WeatherDisplay:10.37,2013-02-24 16:17:00,
2013-02-24 10:22:00,33.1,21.1,29.15,WNW,292,0.0,0.0,61,0.00,,FEW,0.00,WeatherDisplay:10.37,2013-02-24 16:22:00,
2013-02-24 10:27:00,34.0,21.1,29.15,ENE,68,1.4,0.0,59,0.00,,FEW,0.00,WeatherDisplay:10.37,2013-02-24 16:27:00,
2013-02-24 10:32:00,33.8,20.6,29.15,NNW,338,2.3,2.3,58,0.00,,FEW,0.00,WeatherDisplay:10.37,2013-02-24 16:32:00,
2013-02-24 10:37:00,34.3,21.1,29.15,North,0,2.4,2.4,58,0.00,,FEW,0.00,WeatherDisplay:10.37,2013-02-24 16:37:00,
2013-02-24 10:42:00,36.1,21.9,29.15,NW,315,1.1,1.1,56,0.00,,FEW,0.00,WeatherDisplay:10.37,2013-02-24 16:42:00,
2013-02-24 10:47:00,39.4,24.1,29.15,NNE,22,1.1,0.0,54,0.00,,FEW,0.00,WeatherDisplay:10.37,2013-02-24 16:47:00,
2013-02-24 10:52:00,38.7,22.5,29.15,NNE,22,2.3,2.3,52,0.00,,FEW,0.00,WeatherDisplay:10.37,2013-02-24 16:52:00,
2013-02-24 10:57:00,39.7,23.1,29.15,North,0,1.4,0.0,51,0.00,,FEW,0.00,WeatherDisplay:10.37,2013-02-24 16:57:00,
2013-02-24 11:02:00,41.0,24.2,29.15,WNW,292,2.3,2.3,51,0.00,,FEW,0.00,WeatherDisplay:10.37,2013-02-24 17:02:00,
2013-02-24 11:07:00,41.0,23.8,29.15,NNW,338,1.1,1.4,50,0.00,,FEW,0.00,WeatherDisplay:10.37,2013-02-24 17:07:00,
2013-02-24 11:13:00,39.6,22.4,29.15,North,0,1.4,1.4,50,0.00,,FEW,0.00,WeatherDisplay:10.37,2013-02-24 17:13:00,
2013-02-24 11:18:00,38.5,21.4,29.15,West,270,2.2,0.0,50,0.00,,FEW,0.00,WeatherDisplay:10.37,2013-02-24 17:18:00,
2013-02-24 11:23:00,42.4,24.6,29.15,WNW,292,2.3,2.3,49,0.00,,FEW,0.00,WeatherDisplay:10.37,2013-02-24 17:23:00,
2013-02-24 11:28:00,46.9,26.1,29.15,North,0,1.1,0.0,44,0.00,,FEW,0.00,WeatherDisplay:10.37,2013-02-24 17:28:00,
2013-02-24 11:33:00,46.6,26.4,29.12,SE,135,3.5,3.5,45,0.00,,FEW,0.00,WeatherDisplay:10.37,2013-02-24 17:33:00,
2013-02-24 11:38:00,47.1,25.7,29.12,South,180,2.3,2.3,43,0.00,,FEW,0.00,WeatherDisplay:10.37,2013-02-24 17:38:00,
2013-02-24 11:43:00,46.0,24.2,29.12,SW,225,2.3,2.3,42,0.00,,FEW,0.00,WeatherDisplay:10.37,2013-02-24 17:43:00,
2013-02-24 11:48:00,41.0,19.1,29.15,SSE,158,4.6,4.6,41,0.00,,FEW,0.00,WeatherDisplay:10.37,2013-02-24 17:48:00,
2013-02-24 11:53:00,42.1,20.6,29.15,SSW,202,4.6,4.6,42,0.00,,FEW,0.00,WeatherDisplay:10.37,2013-02-24 17:53:00,
2013-02-24 11:58:00,41.2,19.2,29.15,South,180,6.9,6.9,41,0.00,,FEW,0.00,WeatherDisplay:10.37,2013-02-24 17:58:00,
2013-02-24 12:03:00,39.2,18.0,29.18,South,180,5.8,5.8,42,0.00,,FEW,0.00,WeatherDisplay:10.37,2013-02-24 18:03:00,
2013-02-24 12:08:00,38.5,17.9,29.18,South,180,4.6,4.6,43,0.00,,FEW,0.00,WeatherDisplay:10.37,2013-02-24 18:08:00,
2013-02-24 12:13:00,38.7,18.1,29.18,SSW,202,5.8,5.8,43,0.00,,FEW,0.00,WeatherDisplay:10.37,2013-02-24 18:13:00,
2013-02-24 12:18:00,39.9,19.2,29.15,SSW,202,5.4,5.4,43,0.00,,FEW,0.00,WeatherDisplay:10.37,2013-02-24 18:18:00,
2013-02-24 12:23:00,41.9,21.0,29.15,West,270,3.5,3.5,43,0.00,,FEW,0.00,WeatherDisplay:10.37,2013-02-24 18:23:00,
2013-02-24 12:28:00,42.8,21.3,29.15,WNW,292,3.5,3.5,42,0.00,,FEW,0.00,WeatherDisplay:10.37,2013-02-24 18:28:00,
2013-02-24 12:33:00,43.0,21.4,29.15,SSW,202,2.3,2.3,42,0.00,,FEW,0.00,WeatherDisplay:10.37,2013-02-24 18:33:00,
2013-02-24 12:38:00,44.1,22.4,29.15,South,180,2.3,2.4,42,0.00,,FEW,0.00,WeatherDisplay:10.37,2013-02-24 18:38:00,
2013-02-24 12:43:00,46.0,23.6,29.15,SW,225,2.3,2.3,41,0.00,,FEW,0.00,WeatherDisplay:10.37,2013-02-24 18:43:00,
2013-02-24 12:48:00,46.4,23.4,29.15,SE,135,4.6,4.6,40,0.00,,FEW,0.00,WeatherDisplay:10.37,2013-02-24 18:48:00,
2013-02-24 12:53:00,46.4,23.4,29.15,SSW,202,4.6,4.6,40,0.00,,FEW,0.00,WeatherDisplay:10.37,2013-02-24 18:53:00,
2013-02-24 12:58:00,48.2,25.0,29.15,ESE,112,2.6,2.6,40,0.00,,FEW,0.00,WeatherDisplay:10.37,2013-02-24 18:58:00,
2013-02-24 13:03:00,49.5,25.5,29.18,SSE,158,2.4,0.0,39,0.00,,FEW,0.00,WeatherDisplay:10.37,2013-02-24 19:03:00,
2013-02-24 13:08:00,46.2,22.6,29.18,South,180,6.9,6.9,39,0.00,,FEW,0.00,WeatherDisplay:10.37,2013-02-24 19:08:00,
2013-02-24 13:13:00,43.7,20.9,29.18,SSE,158,5.8,5.8,40,0.00,,FEW,0.00,WeatherDisplay:10.37,2013-02-24 19:13:00,
2013-02-24 13:18:00,43.0,20.3,29.15,North,0,4.6,4.6,40,0.00,,FEW,0.00,WeatherDisplay:10.37,2013-02-24 19:18:00,
2013-02-24 13:23:00,45.0,22.1,29.15,SSE,158,6.0,6.0,40,0.00,,FEW,0.00,WeatherDisplay:10.37,2013-02-24 19:23:00,
2013-02-24 13:28:00,42.8,20.1,29.15,SSW,202,3.5,3.5,40,0.00,,FEW,0.00,WeatherDisplay:10.37,2013-02-24 19:28:00,
2013-02-24 13:33:00,42.3,20.2,29.15,South,180,2.3,2.3,41,0.00,,FEW,0.00,WeatherDisplay:10.37,2013-02-24 19:33:00,
2013-02-24 13:38:00,43.7,20.9,29.15,SSE,158,4.6,4.6,40,0.00,,FEW,0.00,WeatherDisplay:10.37,2013-02-24 19:38:00,
2013-02-24 13:43:00,42.1,19.5,29.15,SSW,202,5.8,5.8,40,0.00,,FEW,0.00,WeatherDisplay:10.37,2013-02-24 19:43:00,
2013-02-24 13:48:00,42.3,19.6,29.15,ESE,112,4.6,4.6,40,0.00,,FEW,0.00,WeatherDisplay:10.37,2013-02-24 19:48:00,
2013-02-24 13:53:00,43.0,20.3,29.15,ENE,68,4.6,4.6,40,0.00,,FEW,0.00,WeatherDisplay:10.37,2013-02-24 19:53:00,
2013-02-24 13:58:00,42.6,20.0,29.15,SSE,158,5.8,5.8,40,0.00,,FEW,0.00,WeatherDisplay:10.37,2013-02-24 19:58:00,
2013-02-24 14:03:00,44.1,21.3,29.12,SSW,202,2.3,2.3,40,0.00,,FEW,0.00,WeatherDisplay:10.37,2013-02-24 20:03:00,
2013-02-24 14:08:00,43.2,20.4,29.12,ESE,112,4.0,4.0,40,0.00,,FEW,0.00,WeatherDisplay:10.37,2013-02-24 20:08:00,
2013-02-24 14:13:00,42.8,20.1,29.12,South,180,6.9,6.9,40,0.00,,FEW,0.00,WeatherDisplay:10.37,2013-02-24 20:13:00,
2013-02-24 14:18:00,45.7,22.7,29.12,WNW,292,2.3,2.3,40,0.00,,FEW,0.00,WeatherDisplay:10.37,2013-02-24 20:18:00,
2013-02-24 14:23:00,47.5,24.3,29.12,South,180,3.8,3.8,40,0.00,,FEW,0.00,WeatherDisplay:10.37,2013-02-24 20:23:00,
2013-02-24 14:28:00,48.0,24.2,29.12,SSE,158,4.6,4.6,39,0.00,,FEW,0.00,WeatherDisplay:10.37,2013-02-24 20:28:00,
2013-02-24 14:33:00,47.5,23.7,29.12,NNE,22,3.5,3.5,39,0.00,,FEW,0.00,WeatherDisplay:10.37,2013-02-24 20:33:00,
2013-02-24 14:38:00,46.4,22.1,29.12,South,180,4.6,4.6,38,0.00,,FEW,0.00,WeatherDisplay:10.37,2013-02-24 20:38:00,
2013-02-24 14:43:00,45.5,21.3,29.12,SSE,158,3.5,3.6,38,0.00,,FEW,0.00,WeatherDisplay:10.37,2013-02-24 20:43:00,
2013-02-24 14:48:00,45.7,22.1,29.12,SSW,202,4.6,4.6,39,0.00,,FEW,0.00,WeatherDisplay:10.37,2013-02-24 20:48:00,
2013-02-24 14:53:00,44.6,20.5,29.12,SE,135,5.8,5.8,38,0.00,,FEW,0.00,WeatherDisplay:10.37,2013-02-24 20:53:00,
2013-02-24 14:58:00,45.5,21.9,29.12,WNW,292,2.3,2.3,39,0.00,,FEW,0.00,WeatherDisplay:10.37,2013-02-24 20:58:00,
2013-02-24 15:03:00,44.6,21.1,29.12,NNE,22,3.5,3.5,39,0.00,,FEW,0.00,WeatherDisplay:10.37,2013-02-24 21:03:00,
2013-02-24 15:08:00,41.7,19.1,29.12,South,180,4.9,4.9,40,0.00,,FEW,0.00,WeatherDisplay:10.37,2013-02-24 21:08:00,
2013-02-24 15:13:00,42.1,19.5,29.12,SSW,202,2.4,2.4,40,0.00,,FEW,0.00,WeatherDisplay:10.37,2013-02-24 21:13:00,
2013-02-24 15:18:00,41.4,18.8,29.12,SSE,158,4.6,4.6,40,0.00,,FEW,0.00,WeatherDisplay:10.37,2013-02-24 21:18:00,
2013-02-24 15:23:00,39.9,18.1,29.12,East,90,4.6,4.6,41,0.00,,FEW,0.00,WeatherDisplay:10.37,2013-02-24 21:23:00,
2013-02-24 15:28:00,40.1,18.3,29.12,SSE,158,4.6,4.6,41,0.00,,FEW,0.00,WeatherDisplay:10.37,2013-02-24 21:28:00,
2013-02-24 15:33:00,39.2,17.4,29.12,SSE,158,5.8,5.8,41,0.00,,FEW,0.00,WeatherDisplay:10.37,2013-02-24 21:33:00,
2013-02-24 15:38:00,39.4,17.6,29.12,SE,135,3.5,3.5,41,0.00,,FEW,0.00,WeatherDisplay:10.37,2013-02-24 21:38:00,
2013-02-24 15:43:00,39.9,18.1,29.12,ENE,68,2.4,2.4,41,0.00,,FEW,0.00,WeatherDisplay:10.37,2013-02-24 21:43:00,
2013-02-24 15:48:00,39.0,17.8,29.12,SSW,202,3.5,3.5,42,0.00,,FEW,0.00,WeatherDisplay:10.37,2013-02-24 21:48:00,
2013-02-24 15:53:00,38.8,17.7,29.12,East,90,3.5,0.0,42,0.00,,FEW,0.00,WeatherDisplay:10.37,2013-02-24 21:53:00,
2013-02-24 15:58:00,40.5,19.1,29.12,SSE,158,3.1,3.1,42,0.00,,FEW,0.00,WeatherDisplay:10.37,2013-02-24 21:58:00,
2013-02-24 16:03:00,40.6,19.3,29.12,NNE,22,1.1,0.0,42,0.00,,FEW,0.00,WeatherDisplay:10.37,2013-02-24 22:03:00,
2013-02-24 16:08:00,41.0,19.1,29.12,SSE,158,2.3,2.3,41,0.00,,FEW,0.00,WeatherDisplay:10.37,2013-02-24 22:08:00,
2013-02-24 16:13:00,40.8,19.5,29.12,SE,135,2.6,2.6,42,0.00,,FEW,0.00,WeatherDisplay:10.37,2013-02-24 22:13:00,
2013-02-24 16:18:00,43.7,21.5,29.12,NNW,338,0.0,0.0,41,0.00,,FEW,0.00,WeatherDisplay:10.37,2013-02-24 22:18:00,
2013-02-24 16:23:00,45.0,22.6,29.12,NNE,22,2.9,0.0,41,0.00,,FEW,0.00,WeatherDisplay:10.37,2013-02-24 22:23:00,
2013-02-24 16:28:00,46.2,23.8,29.12,ENE,68,1.1,0.0,41,0.00,,FEW,0.00,WeatherDisplay:10.37,2013-02-24 22:28:00,
2013-02-24 16:34:00,45.0,22.1,29.12,South,180,2.9,2.9,40,0.00,,FEW,0.00,WeatherDisplay:10.37,2013-02-24 22:34:00,
2013-02-24 16:38:00,44.2,21.4,29.12,NNE,22,3.3,3.3,40,0.00,,FEW,0.00,WeatherDisplay:10.37,2013-02-24 22:38:00,
2013-02-24 16:44:00,42.4,19.8,29.12,NW,315,4.6,4.6,40,0.00,,FEW,0.00,WeatherDisplay:10.37,2013-02-24 22:44:00,
2013-02-24 16:49:00,40.5,18.6,29.12,West,270,2.4,3.6,41,0.00,,FEW,0.00,WeatherDisplay:10.37,2013-02-24 22:49:00,
2013-02-24 16:54:00,40.1,18.3,29.12,NE,45,2.3,2.3,41,0.00,,FEW,0.00,WeatherDisplay:10.37,2013-02-24 22:54:00,
2013-02-24 16:59:00,39.9,18.1,29.12,WNW,292,2.3,2.3,41,0.00,,FEW,0.00,WeatherDisplay:10.37,2013-02-24 22:59:00,
2013-02-24 17:04:00,39.2,18.0,29.12,NNE,22,2.3,2.3,42,0.00,,FEW,0.00,WeatherDisplay:10.37,2013-02-24 23:04:00,
2013-02-24 17:09:00,39.0,17.8,29.12,SE,135,2.3,2.3,42,0.00,,FEW,0.00,WeatherDisplay:10.37,2013-02-24 23:09:00,
2013-02-24 17:14:00,38.7,17.5,29.12,ESE,112,2.3,0.0,42,0.00,,FEW,0.00,WeatherDisplay:10.37,2013-02-24 23:14:00,
2013-02-24 17:19:00,37.2,16.7,29.12,SW,225,2.3,2.3,43,0.00,,FEW,0.00,WeatherDisplay:10.37,2013-02-24 23:19:00,
2013-02-24 17:24:00,36.1,15.8,29.12,NNW,338,3.5,3.5,43,0.00,,FEW,0.00,WeatherDisplay:10.37,2013-02-24 23:24:00,
2013-02-24 17:29:00,34.7,15.0,29.12,SSE,158,1.1,0.0,44,0.00,,FEW,0.00,WeatherDisplay:10.37,2013-02-24 23:29:00,
2013-02-24 17:34:00,33.4,13.8,29.12,NNE,22,1.1,1.1,44,0.00,,FEW,0.00,WeatherDisplay:10.37,2013-02-24 23:34:00,
2013-02-24 17:39:00,32.4,13.4,29.12,North,0,0.0,0.0,45,0.00,,FEW,0.00,WeatherDisplay:10.37,2013-02-24 23:39:00,
2013-02-24 17:44:00,30.9,12.5,29.12,NNE,22,1.1,0.0,46,0.00,,FEW,0.00,WeatherDisplay:10.37,2013-02-24 23:44:00,
2013-02-24 17:49:00,30.2,12.8,29.12,NW,315,2.3,2.3,48,0.00,,FEW,0.00,WeatherDisplay:10.37,2013-02-24 23:49:00,
2013-02-24 17:54:00,29.3,12.9,29.12,NE,45,2.3,2.3,50,0.00,,FEW,0.00,WeatherDisplay:10.37,2013-02-24 23:54:00,
2013-02-24 17:59:00,28.6,13.2,29.12,ENE,68,2.9,2.9,52,0.00,,FEW,0.00,WeatherDisplay:10.37,2013-02-24 23:59:00,
2013-02-24 18:04:00,28.2,13.7,29.12,SSW,202,3.5,3.5,54,0.00,,FEW,0.00,WeatherDisplay:10.37,2013-02-25 00:04:00,
2013-02-24 18:09:00,27.9,13.8,29.12,ENE,68,2.3,2.3,55,0.00,,FEW,0.00,WeatherDisplay:10.37,2013-02-25 00:09:00,
2013-02-24 18:14:00,27.5,13.4,29.12,SE,135,2.3,2.3,55,0.00,,FEW,0.00,WeatherDisplay:10.37,2013-02-25 00:14:00,
2013-02-24 18:19:00,27.1,13.1,29.15,SE,135,2.3,2.3,55,0.00,,FEW,0.00,WeatherDisplay:10.37,2013-02-25 00:19:00,
2013-02-24 18:24:00,27.0,13.3,29.15,SSE,158,3.5,3.5,56,0.00,,FEW,0.00,WeatherDisplay:10.37,2013-02-25 00:24:00,
2013-02-24 18:29:00,26.8,13.6,29.15,SE,135,1.4,0.0,57,0.00,,FEW,0.00,WeatherDisplay:10.37,2013-02-25 00:29:00,
2013-02-24 18:34:00,26.4,13.2,29.15,SE,135,1.1,1.1,57,0.00,,FEW,0.00,WeatherDisplay:10.37,2013-02-25 00:34:00,
2013-02-24 18:39:00,26.1,12.9,29.15,SSE,158,1.1,1.1,57,0.00,,FEW,0.00,WeatherDisplay:10.37,2013-02-25 00:39:00,
2013-02-24 18:44:00,25.9,13.1,29.15,SE,135,1.1,1.1,58,0.00,,FEW,0.00,WeatherDisplay:10.37,2013-02-25 00:44:00,
2013-02-24 18:49:00,25.7,13.3,29.18,South,180,2.3,2.3,59,0.00,,FEW,0.00,WeatherDisplay:10.37,2013-02-25 00:49:00,
2013-02-24 18:54:00,25.3,12.6,29.18,SSE,158,1.1,1.1,58,0.00,,FEW,0.00,WeatherDisplay:10.37,2013-02-25 00:54:00,
2013-02-24 18:59:00,25.2,12.4,29.18,South,180,1.1,0.0,58,0.00,,FEW,0.00,WeatherDisplay:10.37,2013-02-25 00:59:00,
2013-02-24 19:04:00,24.8,12.5,29.15,SSE,158,0.0,0.0,59,0.00,,FEW,0.00,WeatherDisplay:10.37,2013-02-25 01:04:00,
2013-02-24 19:09:00,24.4,12.1,29.15,SSE,158,1.1,0.0,59,0.00,,FEW,0.00,WeatherDisplay:10.37,2013-02-25 01:09:00,
2013-02-24 19:14:00,24.3,12.0,29.15,SSE,158,1.1,0.0,59,0.00,,FEW,0.00,WeatherDisplay:10.37,2013-02-25 01:14:00,
2013-02-24 19:19:00,23.9,11.6,29.12,SW,225,2.3,2.3,59,0.00,,FEW,0.00,WeatherDisplay:10.37,2013-02-25 01:19:00,
2013-02-24 19:24:00,24.1,12.6,29.12,South,180,2.3,0.0,61,0.00,,FEW,0.00,WeatherDisplay:10.37,2013-02-25 01:24:00,
2013-02-24 19:29:00,23.9,12.4,29.12,SE,135,1.1,0.0,61,0.00,,FEW,0.00,WeatherDisplay:10.37,2013-02-25 01:29:00,
2013-02-24 19:34:00,23.5,12.1,29.15,SE,135,0.0,0.0,61,0.00,,FEW,0.00,WeatherDisplay:10.37,2013-02-25 01:34:00,
2013-02-24 19:39:00,23.5,12.1,29.15,SSE,158,1.1,0.0,61,0.00,,FEW,0.00,WeatherDisplay:10.37,2013-02-25 01:39:00,
2013-02-24 19:44:00,23.5,12.4,29.15,SSE,158,1.6,1.6,62,0.00,,FEW,0.00,WeatherDisplay:10.37,2013-02-25 01:44:00,
2013-02-24 19:49:00,23.5,12.8,29.15,South,180,1.4,1.4,63,0.00,,FEW,0.00,WeatherDisplay:10.37,2013-02-25 01:49:00,
2013-02-24 19:54:00,23.2,12.4,29.15,South,180,0.0,0.0,63,0.00,,FEW,0.00,WeatherDisplay:10.37,2013-02-25 01:54:00,
2013-02-24 19:59:00,23.0,12.6,29.15,South,180,0.0,0.0,64,0.00,,FEW,0.00,WeatherDisplay:10.37,2013-02-25 01:59:00,
2013-02-24 20:04:00,22.8,12.5,29.15,South,180,1.4,1.4,64,0.00,,FEW,0.00,WeatherDisplay:10.37,2013-02-25 02:04:00,
2013-02-24 20:09:00,22.8,12.8,29.15,South,180,1.6,1.6,65,0.00,,FEW,0.00,WeatherDisplay:10.37,2013-02-25 02:09:00,
2013-02-24 20:14:00,22.8,13.5,29.15,SSE,158,2.3,2.3,67,0.00,,FEW,0.00,WeatherDisplay:10.37,2013-02-25 02:14:00,
2013-02-24 20:19:00,22.8,13.5,29.15,SSE,158,1.1,1.1,67,0.00,,FEW,0.00,WeatherDisplay:10.37,2013-02-25 02:19:00,
2013-02-24 20:24:00,22.8,13.8,29.15,South,180,2.3,2.3,68,0.00,,FEW,0.00,WeatherDisplay:10.37,2013-02-25 02:24:00,
2013-02-24 20:29:00,22.6,14.0,29.15,South,180,2.3,2.3,69,0.00,,FEW,0.00,WeatherDisplay:10.37,2013-02-25 02:29:00,
2013-02-24 20:34:00,22.6,14.3,29.18,South,180,2.3,2.3,70,0.00,,FEW,0.00,WeatherDisplay:10.37,2013-02-25 02:34:00,
2013-02-24 20:39:00,22.5,14.5,29.18,South,180,2.3,2.3,71,0.00,,FEW,0.00,WeatherDisplay:10.37,2013-02-25 02:39:00,
2013-02-24 20:44:00,22.6,15.3,29.18,South,180,2.4,2.4,73,0.00,,FEW,0.00,WeatherDisplay:10.37,2013-02-25 02:44:00,
2013-02-24 20:49:00,22.5,15.4,29.15,SSW,202,2.4,2.4,74,0.00,,FEW,0.00,WeatherDisplay:10.37,2013-02-25 02:49:00,
2013-02-24 20:54:00,22.5,15.4,29.15,South,180,2.3,2.3,74,0.00,,FEW,0.00,WeatherDisplay:10.37,2013-02-25 02:54:00,
2013-02-24 20:59:00,22.3,14.6,29.15,South,180,1.1,1.1,72,0.00,,FEW,0.00,WeatherDisplay:10.37,2013-02-25 02:59:00,
2013-02-24 21:04:00,22.5,15.4,29.15,South,180,2.4,2.4,74,0.00,,FEW,0.00,WeatherDisplay:10.37,2013-02-25 03:04:00,
2013-02-24 21:09:00,22.6,15.9,29.15,SSW,202,2.3,2.3,75,0.00,,FEW,0.00,WeatherDisplay:10.37,2013-02-25 03:09:00,
2013-02-24 21:14:00,23.0,16.6,29.15,SSW,202,2.4,2.4,76,0.00,,FEW,0.00,WeatherDisplay:10.37,2013-02-25 03:14:00,
2013-02-24 21:19:00,22.8,16.1,29.12,SSW,202,3.5,3.5,75,0.00,,FEW,0.00,WeatherDisplay:10.37,2013-02-25 03:19:00,
2013-02-24 21:24:00,23.2,16.1,29.12,SSW,202,2.3,2.3,74,0.00,,FEW,0.00,WeatherDisplay:10.37,2013-02-25 03:24:00,
2013-02-24 21:29:00,23.5,16.5,29.12,SSE,158,3.5,3.5,74,0.00,,FEW,0.00,WeatherDisplay:10.37,2013-02-25 03:29:00,
2013-02-24 21:34:00,23.7,16.6,29.15,SSW,202,3.5,3.5,74,0.00,,FEW,0.00,WeatherDisplay:10.37,2013-02-25 03:34:00,
2013-02-24 21:39:00,23.7,16.3,29.15,SSE,158,2.3,2.3,73,0.00,,FEW,0.00,WeatherDisplay:10.37,2013-02-25 03:39:00,
2013-02-24 21:44:00,23.7,16.3,29.15,SSE,158,2.4,2.4,73,0.00,,FEW,0.00,WeatherDisplay:10.37,2013-02-25 03:44:00,
2013-02-24 21:49:00,23.7,16.0,29.15,SSW,202,2.0,2.0,72,0.00,,FEW,0.00,WeatherDisplay:10.37,2013-02-25 03:49:00,
2013-02-24 21:54:00,23.7,16.3,29.15,SSE,158,2.3,2.3,73,0.00,,FEW,0.00,WeatherDisplay:10.37,2013-02-25 03:54:00,
2013-02-24 22:00:00,23.7,16.3,29.15,SSW,198,2.0,0.0,73,0.00,,FEW,0.00,WeatherDisplay:10.37,2013-02-25 04:00:00,
2013-02-24 22:05:00,23.5,16.2,29.15,SSW,196,2.0,0.0,73,0.00,,FEW,0.00,WeatherDisplay:10.37,2013-02-25 04:05:00,
2013-02-24 22:10:00,23.5,16.2,29.15,South,180,2.4,2.4,73,0.00,,FEW,0.00,WeatherDisplay:10.37,2013-02-25 04:10:00,
2013-02-24 22:15:00,23.5,16.2,29.15,South,180,2.3,2.3,73,0.00,,FEW,0.00,WeatherDisplay:10.37,2013-02-25 04:15:00,
2013-02-24 22:20:00,23.5,15.8,29.15,South,185,1.0,0.0,72,0.00,,FEW,0.00,WeatherDisplay:10.37,2013-02-25 04:20:00,
2013-02-24 22:25:00,23.7,16.3,29.15,SSW,202,2.3,2.3,73,0.00,,FEW,0.00,WeatherDisplay:10.37,2013-02-25 04:25:00,
2013-02-24 22:30:00,23.5,16.2,29.15,South,190,2.0,0.0,73,0.00,,FEW,0.00,WeatherDisplay:10.37,2013-02-25 04:30:00,
2013-02-24 22:35:00,23.7,16.0,29.15,South,188,1.0,0.0,72,0.00,,FEW,0.00,WeatherDisplay:10.37,2013-02-25 04:35:00,
2013-02-24 22:40:00,23.7,16.0,29.15,SSW,198,1.0,0.0,72,0.00,,FEW,0.00,WeatherDisplay:10.37,2013-02-25 04:40:00,
2013-02-24 22:45:00,23.7,16.0,29.15,SSW,202,2.3,2.3,72,0.00,,FEW,0.00,WeatherDisplay:10.37,2013-02-25 04:45:00,
2013-02-24 22:50:00,23.7,16.0,29.15,SSW,202,1.4,1.4,72,0.00,,FEW,0.00,WeatherDisplay:10.37,2013-02-25 04:50:00,
2013-02-24 22:55:00,23.7,16.0,29.15,SSW,202,2.0,2.0,72,0.00,,FEW,0.00,WeatherDisplay:10.37,2013-02-25 04:55:00,
2013-02-24 23:00:00,23.9,16.5,29.15,South,180,2.4,2.4,73,0.00,,FEW,0.00,WeatherDisplay:10.37,2013-02-25 05:00:00,
2013-02-24 23:05:00,24.3,16.8,29.15,SSW,202,2.4,2.4,73,0.00,,FEW,0.00,WeatherDisplay:10.37,2013-02-25 05:05:00,
2013-02-24 23:10:00,24.4,17.0,29.15,South,180,2.3,2.3,73,0.00,,FEW,0.00,WeatherDisplay:10.37,2013-02-25 05:10:00,
2013-02-24 23:15:00,24.4,16.7,29.15,SSW,202,2.3,2.3,72,0.00,,FEW,0.00,WeatherDisplay:10.37,2013-02-25 05:15:00,
2013-02-24 23:20:00,24.4,16.7,29.15,South,180,2.3,2.3,72,0.00,,FEW,0.00,WeatherDisplay:10.37,2013-02-25 05:20:00,
2013-02-24 23:25:00,24.4,16.4,29.15,South,180,2.3,2.3,71,0.00,,FEW,0.00,WeatherDisplay:10.37,2013-02-25 05:25:00,
2013-02-24 23:30:00,24.4,16.4,29.15,South,180,0.0,0.0,71,0.00,,FEW,0.00,WeatherDisplay:10.37,2013-02-25 05:30:00,
2013-02-24 23:35:00,24.4,16.4,29.15,South,180,0.0,0.0,71,0.00,,FEW,0.00,WeatherDisplay:10.37,2013-02-25 05:35:00,
2013-02-24 23:40:00,24.6,16.6,29.15,SSW,202,0.0,0.0,71,0.00,,FEW,0.00,WeatherDisplay:10.37,2013-02-25 05:40:00,
2013-02-24 23:45:00,24.8,16.4,29.15,SSW,202,0.0,0.0,70,0.00,,FEW,0.00,WeatherDisplay:10.37,2013-02-25 05:45:00,
2013-02-24 23:50:00,24.8,16.4,29.15,South,180,0.0,0.0,70,0.00,,FEW,0.00,WeatherDisplay:10.37,2013-02-25 05:50:00,
2013-02-24 23:55:00,25.0,16.6,29.15,SSE,158,1.1,0.0,70,0.00,,FEW,0.00,WeatherDisplay:10.37,2013-02-25 05:55:00,